Time;durP1;ratioP1;P1;durP2;ratioP2;P2;SDS_P1;SDS_P2;PMS_P1;PMS_P2;Temp;Humidity;BMP_temperature;BMP_pressure;BME280_temperature;BME280_humidity;BME280_pressure;Samples;Min_cycle;Max_cycle;Signal;HPM_P1;HPM_P2
2023/05/06 00:01:27;;;;;;;9.50;4.65;;;;;;;12.94;100.00;101366.19;6277146;28;20041;-76
2023/05/06 00:04:28;;;;;;;9.55;5.55;;;;;;;12.92;100.00;101356.63;6277372;28;20435;-75
2023/05/06 00:07:31;;;;;;;11.73;5.90;;;;;;;12.97;100.00;101366.94;6276860;28;20128;-76
2023/05/06 00:10:33;;;;;;;9.60;4.95;;;;;;;12.97;100.00;101361.66;6276634;28;20048;-76
2023/05/06 00:13:34;;;;;;;10.05;5.25;;;;;;;12.99;100.00;101362.41;6276833;28;20059;-76
2023/05/06 00:16:35;;;;;;;11.57;5.78;;;;;;;13.06;100.00;101361.16;6276938;28;20041;-76
2023/05/06 00:19:37;;;;;;;10.73;6.28;;;;;;;13.09;100.00;101361.00;6276559;28;20048;-76
2023/05/06 00:22:40;;;;;;;7.38;4.32;;;;;;;13.07;100.00;101362.88;6276599;28;20067;-76
2023/05/06 00:25:41;;;;;;;8.48;5.35;;;;;;;13.02;100.00;101359.63;6276714;28;20430;-76
2023/05/06 00:28:43;;;;;;;13.82;7.50;;;;;;;12.95;100.00;101359.97;6276414;28;20056;-76
2023/05/06 00:31:44;;;;;;;8.88;5.35;;;;;;;12.92;100.00;101357.47;6276326;28;20045;-76
2023/05/06 00:34:46;;;;;;;13.60;6.07;;;;;;;12.78;100.00;101367.06;6276421;28;20045;-76
2023/05/06 00:37:56;;;;;;;9.00;5.40;;;;;;;12.80;100.00;101363.41;6276122;28;20128;-76
2023/05/06 00:40:57;;;;;;;;;;;;;;;12.79;100.00;101374.03;6276865;28;20128;-76
2023/05/06 00:43:58;;;;;;;8.75;5.10;;;;;;;12.78;100.00;101367.91;6276126;28;19920;-76
2023/05/06 00:47:01;;;;;;;9.73;6.00;;;;;;;12.76;100.00;101366.28;6275834;28;20053;-76
2023/05/06 00:50:03;;;;;;;9.68;5.50;;;;;;;12.76;100.00;101372.41;6275890;28;20330;-76
2023/05/06 00:53:08;;;;;;;9.00;5.70;;;;;;;12.80;100.00;101376.59;6276074;28;20049;-76
2023/05/06 00:56:10;;;;;;;10.50;4.28;;;;;;;12.84;100.00;101369.38;6276046;28;20052;-76
2023/05/06 00:59:11;;;;;;;7.07;4.03;;;;;;;12.81;100.00;101366.88;6275839;28;20056;-76
2023/05/06 01:02:13;;;;;;;10.10;4.50;;;;;;;12.83;100.00;101363.25;6275553;28;20045;-76
2023/05/06 01:05:16;;;;;;;9.93;4.00;;;;;;;12.82;100.00;101358.91;6275861;28;20045;-76
2023/05/06 01:08:25;;;;;;;7.30;4.13;;;;;;;12.83;100.00;101365.88;6275301;28;20049;-76
2023/05/06 01:11:34;;;;;;;8.55;4.63;;;;;;;12.76;100.00;101361.00;6275706;28;20084;-76
2023/05/06 01:14:43;;;;;;;8.38;4.75;;;;;;;12.70;100.00;101355.13;6275734;28;20041;-76
2023/05/06 01:17:45;;;;;;;6.88;4.93;;;;;;;12.62;100.00;101357.28;6275378;28;20049;-76
2023/05/06 01:20:49;;;;;;;8.48;4.50;;;;;;;12.59;100.00;101362.75;6275266;28;20049;-76
2023/05/06 01:23:54;;;;;;;14.80;5.03;;;;;;;12.59;100.00;101356.63;6275622;28;20045;-76
2023/05/06 01:26:55;;;;;;;8.48;4.35;;;;;;;12.55;100.00;101358.56;6275313;28;20053;-76
2023/05/06 01:29:58;;;;;;;9.07;4.70;;;;;;;12.46;100.00;101350.28;6275069;28;20052;-76
2023/05/06 01:33:07;;;;;;;6.53;4.10;;;;;;;12.52;100.00;101360.50;6274885;28;20056;-76
2023/05/06 01:36:15;;;;;;;9.07;5.47;;;;;;;12.42;100.00;101358.34;6275106;28;20345;-76
2023/05/06 01:39:22;;;;;;;9.55;5.20;;;;;;;12.44;100.00;101353.84;6274968;28;20437;-76
2023/05/06 01:42:25;;;;;;;5.75;4.18;;;;;;;12.49;100.00;101360.66;6275174;28;20049;-76
2023/05/06 01:45:30;;;;;;;7.05;3.88;;;;;;;12.51;100.00;101364.91;6275030;28;20441;-75
2023/05/06 01:48:36;;;;;;;6.82;4.07;;;;;;;12.47;100.00;101358.09;6268840;28;20048;-75
2023/05/06 01:51:37;;;;;;;9.50;4.75;;;;;;;12.47;100.00;101371.28;6274877;28;20064;-75
2023/05/06 01:54:40;;;;;;;8.93;4.50;;;;;;;12.42;100.00;101371.53;6274750;28;20349;-75
2023/05/06 01:57:41;;;;;;;7.93;4.63;;;;;;;12.29;100.00;101362.53;6275217;28;20045;-75
2023/05/06 02:00:43;;;;;;;13.52;5.80;;;;;;;12.12;100.00;101363.38;6279877;28;20346;-75
2023/05/06 02:03:44;;;;;;;11.75;5.43;;;;;;;12.19;100.00;101364.78;6280064;28;20060;-75
2023/05/06 02:06:46;;;;;;;8.07;4.88;;;;;;;12.16;100.00;101366.69;6279559;28;20053;-75
2023/05/06 02:09:48;;;;;;;8.50;4.88;;;;;;;12.14;100.00;101363.31;6279811;28;20049;-75
2023/05/06 02:12:50;;;;;;;7.20;4.22;;;;;;;12.13;100.00;101366.88;6279415;28;20049;-75
2023/05/06 02:15:52;;;;;;;9.18;4.07;;;;;;;12.08;100.00;101360.97;6271576;28;20052;-75
2023/05/06 02:18:54;;;;;;;8.27;3.97;;;;;;;12.10;100.00;101367.88;6279331;28;20053;-75
2023/05/06 02:21:59;;;;;;;7.68;4.57;;;;;;;12.10;100.00;101364.38;6279736;28;20049;-75
2023/05/06 02:25:02;;;;;;;12.13;5.22;;;;;;;12.09;100.00;101362.69;6263315;28;20059;-74
2023/05/06 02:28:04;;;;;;;9.05;5.22;;;;;;;12.13;100.00;101364.25;6279156;28;20110;-75
2023/05/06 02:31:05;;;;;;;9.18;5.45;;;;;;;12.20;100.00;101360.34;6279256;28;20052;-75
2023/05/06 02:34:08;;;;;;;9.80;4.93;;;;;;;12.10;100.00;101359.97;6273126;28;20436;-75
2023/05/06 02:37:10;;;;;;;10.45;5.70;;;;;;;12.12;100.00;101358.09;6278831;28;20357;-75
2023/05/06 02:40:13;;;;;;;9.27;5.25;;;;;;;12.16;100.00;101359.66;6278746;28;20091;-75
2023/05/06 02:43:14;;;;;;;8.77;5.20;;;;;;;12.18;100.00;101357.81;6278968;28;20056;-75
2023/05/06 02:46:16;;;;;;;10.10;5.97;;;;;;;12.25;100.00;101362.75;6279142;28;20056;-75
2023/05/06 02:49:17;;;;;;;9.98;5.60;;;;;;;12.27;100.00;101360.91;6278628;28;20045;-75
2023/05/06 02:52:18;;;;;;;9.68;5.45;;;;;;;12.29;100.00;101351.97;6278938;28;20053;-75
2023/05/06 02:55:22;;;;;;;8.85;5.68;;;;;;;12.18;100.00;101363.06;6278723;28;20041;-75
2023/05/06 02:58:23;;;;;;;11.15;6.00;;;;;;;12.11;100.00;101353.75;6278286;28;20044;-74
2023/05/06 03:01:24;;;;;;;10.25;6.43;;;;;;;12.14;100.00;101360.66;6278557;28;20037;-74
2023/05/06 03:04:26;;;;;;;14.98;6.47;;;;;;;12.03;100.00;101358.56;6277662;28;20045;-75
2023/05/06 03:07:27;;;;;;;12.13;6.45;;;;;;;11.97;100.00;101360.66;6278013;28;20048;-75
2023/05/06 03:10:30;;;;;;;12.75;6.35;;;;;;;11.90;100.00;101360.97;6277565;28;20045;-75
2023/05/06 03:13:31;;;;;;;11.18;6.20;;;;;;;11.81;100.00;101355.22;6278162;28;20044;-75
2023/05/06 03:16:33;;;;;;;12.35;6.65;;;;;;;11.91;100.00;101357.41;6278458;28;20041;-75
2023/05/06 03:19:35;;;;;;;12.85;6.28;;;;;;;11.93;100.00;101363.44;6277935;28;20047;-75
2023/05/06 03:22:36;;;;;;;15.55;6.90;;;;;;;11.88;100.00;101364.59;6276902;28;20049;-75
2023/05/06 03:25:39;;;;;;;12.40;7.13;;;;;;;11.89;100.00;101366.28;6271328;28;20045;-74
2023/05/06 03:28:43;;;;;;;12.75;7.43;;;;;;;11.88;100.00;101360.16;6269865;28;20041;-75
2023/05/06 03:31:44;;;;;;;14.85;7.75;;;;;;;11.84;100.00;101363.03;6269930;28;20132;-75
2023/05/06 03:34:45;;;;;;;19.23;8.93;;;;;;;11.85;100.00;101364.72;6263479;28;20177;-75
2023/05/06 03:37:47;;;;;;;15.95;8.25;;;;;;;11.86;100.00;101371.72;6259324;28;20500;-76
2023/05/06 03:40:49;;;;;;;18.23;8.98;;;;;;;11.83;100.00;101364.81;6263900;28;20041;-75
2023/05/06 03:43:51;;;;;;;16.27;8.35;;;;;;;11.77;100.00;101364.25;6269810;28;20045;-75
2023/05/06 03:46:52;;;;;;;18.25;9.07;;;;;;;11.81;100.00;101366.66;6268623;28;20054;-74
2023/05/06 03:49:54;;;;;;;17.40;8.73;;;;;;;11.79;100.00;101367.63;6269785;28;20049;-75
2023/05/06 03:52:55;;;;;;;16.65;8.35;;;;;;;11.78;100.00;101372.06;6271225;28;20041;-76
2023/05/06 03:55:58;;;;;;;19.45;8.85;;;;;;;11.78;100.00;101369.41;6259287;28;20048;-75
2023/05/06 03:58:59;;;;;;;17.17;8.30;;;;;;;11.72;100.00;101375.00;6256492;28;20049;-75
2023/05/06 04:02:01;;;;;;;13.80;7.65;;;;;;;11.80;100.00;101380.72;6256923;28;20041;-75
2023/05/06 04:05:02;;;;;;;20.50;9.40;;;;;;;11.82;100.00;101385.94;6255996;28;20049;-75
2023/05/06 04:08:04;;;;;;;16.75;8.75;;;;;;;11.80;100.00;101391.25;6258882;28;20052;-74
2023/05/06 04:11:07;;;;;;;17.33;8.68;;;;;;;11.80;100.00;101393.88;6254318;28;20056;-75
2023/05/06 04:14:08;;;;;;;16.55;8.60;;;;;;;11.74;100.00;101391.56;6258812;28;20052;-75
2023/05/06 04:17:10;;;;;;;14.65;7.40;;;;;;;11.75;100.00;101389.78;6255291;28;20048;-75
2023/05/06 04:20:13;;;;;;;17.00;9.13;;;;;;;11.67;100.00;101400.66;6258350;28;20053;-75
2023/05/06 04:23:14;;;;;;;14.40;7.95;;;;;;;11.63;100.00;101394.72;6264311;28;20049;-75
2023/05/06 04:26:17;;;;;;;17.17;7.80;;;;;;;11.59;100.00;101402.81;6276958;28;20041;-75
2023/05/06 04:29:18;;;;;;;15.38;8.93;;;;;;;11.63;100.00;101402.59;6276450;28;20056;-74
2023/05/06 04:32:20;;;;;;;12.43;7.15;;;;;;;11.66;100.00;101405.06;6276564;28;20048;-74
2023/05/06 04:35:22;;;;;;;19.92;8.60;;;;;;;11.63;100.00;101402.59;6275992;28;20056;-74
2023/05/06 04:38:25;;;;;;;17.27;9.50;;;;;;;11.59;100.00;101410.72;6275690;28;20045;-74
2023/05/06 04:41:29;;;;;;;17.50;8.98;;;;;;;11.60;100.00;101408.00;6275945;28;20110;-74
2023/05/06 04:44:32;;;;;;;16.20;8.52;;;;;;;11.68;100.00;101415.56;6275693;28;20052;-74
2023/05/06 04:47:34;;;;;;;16.95;8.07;;;;;;;11.63;100.00;101407.88;6276160;28;20464;-74
2023/05/06 04:50:35;;;;;;;17.00;8.48;;;;;;;11.69;100.00;101410.19;6276231;28;20099;-74
2023/05/06 04:53:36;;;;;;;20.60;10.30;;;;;;;11.61;100.00;101411.50;6275852;28;20357;-74
2023/05/06 04:56:39;;;;;;;16.88;9.35;;;;;;;11.57;100.00;101418.66;6275402;28;20373;-74
2023/05/06 04:59:41;;;;;;;23.40;9.63;;;;;;;11.62;100.00;101413.19;6275776;28;20365;-74
2023/05/06 05:02:42;;;;;;;15.45;9.48;;;;;;;11.61;100.00;101412.34;6275850;28;20464;-74
2023/05/06 05:05:44;;;;;;;19.33;10.88;;;;;;;11.56;100.00;101410.84;6276159;28;20056;-74
2023/05/06 05:08:45;;;;;;;20.35;10.38;;;;;;;11.54;100.00;101415.34;6275632;28;20045;-74
2023/05/06 05:11:48;;;;;;;23.02;10.90;;;;;;;11.51;100.00;101420.75;6275743;28;20045;-74
2023/05/06 05:14:50;;;;;;;25.60;10.98;;;;;;;11.60;100.00;101434.34;6275737;28;20129;-74
2023/05/06 05:17:51;;;;;;;21.15;10.43;;;;;;;11.65;100.00;101444.66;6275314;28;20045;-74
2023/05/06 05:20:52;;;;;;;21.90;12.15;;;;;;;11.60;100.00;101442.22;6275538;28;20048;-74
2023/05/06 05:23:54;;;;;;;20.58;11.95;;;;;;;11.65;100.00;101439.38;6275287;28;20330;-74
2023/05/06 05:26:56;;;;;;;24.67;12.55;;;;;;;11.59;100.00;101440.53;6274895;28;20053;-74
2023/05/06 05:29:58;;;;;;;19.52;10.45;;;;;;;11.60;100.00;101442.22;6275088;28;20053;-75
2023/05/06 05:32:59;;;;;;;26.13;11.32;;;;;;;11.65;100.00;101455.19;6274482;28;20052;-75
2023/05/06 05:36:01;;;;;;;22.15;11.50;;;;;;;11.63;100.00;101455.25;6275013;28;20057;-75
2023/05/06 05:39:02;;;;;;;21.80;11.05;;;;;;;11.69;100.00;101459.38;6275133;28;20079;-75
2023/05/06 05:42:05;;;;;;;19.77;10.90;;;;;;;11.73;100.00;101455.69;6275089;28;20049;-74
2023/05/06 05:45:08;;;;;;;26.77;12.63;;;;;;;11.76;100.00;101450.25;6275198;28;20052;-74
2023/05/06 05:48:09;;;;;;;22.77;11.68;;;;;;;11.76;100.00;101444.13;6266655;28;20049;-74
2023/05/06 05:51:10;;;;;;;22.05;12.35;;;;;;;11.79;100.00;101442.22;6272047;28;20049;-74
2023/05/06 05:54:13;;;;;;;19.50;10.60;;;;;;;11.76;100.00;101446.78;6275194;28;20171;-74
2023/05/06 05:57:15;;;;;;;29.92;11.23;;;;;;;11.86;100.00;101454.22;6274485;28;20045;-75
2023/05/06 06:00:18;;;;;;;27.13;11.98;;;;;;;11.89;100.00;101454.06;6274817;28;20045;-74
2023/05/06 06:03:19;;;;;;;29.10;13.25;;;;;;;11.87;100.00;101452.44;6274964;28;20456;-75
2023/05/06 06:06:21;;;;;;;22.83;11.73;;;;;;;11.90;100.00;101458.41;6274862;28;20056;-74
2023/05/06 06:09:22;;;;;;;30.95;13.93;;;;;;;11.84;100.00;101463.94;6274606;28;20053;-74
2023/05/06 06:12:25;;;;;;;24.30;10.85;;;;;;;11.91;100.00;101465.38;6274887;28;20138;-74
2023/05/06 06:15:26;;;;;;;29.38;12.52;;;;;;;11.94;100.00;101472.28;6274814;28;20053;-74
2023/05/06 06:18:27;;;;;;;30.25;11.95;;;;;;;12.00;100.00;101477.28;6274427;28;20041;-75
2023/05/06 06:21:29;;;;;;;27.10;13.80;;;;;;;12.00;100.00;101476.41;6274704;28;20041;-74
2023/05/06 06:24:33;;;;;;;29.75;13.45;;;;;;;11.98;100.00;101475.63;6274421;28;20052;-74
2023/05/06 06:27:36;;;;;;;29.88;13.88;;;;;;;12.11;100.00;101480.22;6274715;28;20049;-74
2023/05/06 06:30:37;;;;;;;32.03;14.05;;;;;;;12.12;100.00;101481.06;6274324;28;20195;-74
2023/05/06 06:33:39;;;;;;;39.90;14.95;;;;;;;12.19;100.00;101487.78;6269125;28;20048;-74
2023/05/06 06:36:43;;;;;;;30.90;14.13;;;;;;;12.16;100.00;101496.66;6256227;28;20478;-74
2023/05/06 06:39:45;;;;;;;39.97;16.48;;;;;;;12.07;100.00;101486.56;6266464;28;20052;-74
2023/05/06 06:42:48;;;;;;;36.95;15.00;;;;;;;12.16;100.00;101482.66;6273670;28;20056;-75
2023/05/06 06:45:49;;;;;;;36.65;14.98;;;;;;;12.15;100.00;101492.34;6278357;28;20049;-76
2023/05/06 06:48:50;;;;;;;33.35;15.30;;;;;;;12.14;100.00;101495.06;6278839;28;20063;-74
2023/05/06 06:51:52;;;;;;;31.48;14.88;;;;;;;12.19;100.00;101496.53;6276148;28;20454;-74
2023/05/06 06:54:53;;;;;;;35.38;15.57;;;;;;;12.27;100.00;101497.97;6278520;28;20055;-74
2023/05/06 06:57:56;;;;;;;33.15;14.25;;;;;;;12.18;100.00;101496.63;6278200;28;20056;-74
2023/05/06 07:00:57;;;;;;;29.20;13.02;;;;;;;12.15;100.00;101508.13;6278864;28;20049;-74
2023/05/06 07:03:59;;;;;;;30.58;14.70;;;;;;;12.19;100.00;101504.44;6278828;28;20048;-75
2023/05/06 07:07:00;;;;;;;29.83;13.48;;;;;;;12.12;100.00;101507.44;6271815;28;20360;-75
2023/05/06 07:10:01;;;;;;;39.13;16.52;;;;;;;12.11;100.00;101511.00;6267101;28;20068;-74
2023/05/06 07:13:04;;;;;;;32.78;15.15;;;;;;;12.12;100.00;101510.91;6273068;28;20566;-74
2023/05/06 07:16:06;;;;;;;38.17;16.30;;;;;;;12.13;100.00;101519.69;6278185;28;20056;-74
2023/05/06 07:19:07;;;;;;;31.48;13.52;;;;;;;12.16;100.00;101509.84;6278142;28;20430;-74
2023/05/06 07:22:08;;;;;;;30.73;14.18;;;;;;;12.16;100.00;101517.75;6269118;28;20042;-74
2023/05/06 07:25:10;;;;;;;35.67;14.80;;;;;;;12.25;100.00;101520.88;6276366;28;20079;-74
2023/05/06 07:28:12;;;;;;;34.58;15.63;;;;;;;12.16;100.00;101525.66;6277936;28;20052;-74
2023/05/06 07:31:15;;;;;;;34.00;14.50;;;;;;;12.20;100.00;101523.72;6271624;28;20056;-74
2023/05/06 07:34:16;;;;;;;30.63;13.60;;;;;;;12.23;100.00;101530.66;6276983;28;20041;-74
2023/05/06 07:37:17;;;;;;;32.70;13.95;;;;;;;12.21;100.00;101525.44;6277705;28;20056;-75
2023/05/06 07:40:19;;;;;;;29.95;13.50;;;;;;;12.26;100.00;101531.34;6271818;28;20064;-74
2023/05/06 07:43:23;;;;;;;37.25;14.45;;;;;;;12.24;100.00;101532.34;6275773;28;20442;-75
2023/05/06 07:46:24;;;;;;;50.25;16.98;;;;;;;12.27;100.00;101533.06;6275989;28;20357;-74
2023/05/06 07:49:27;;;;;;;37.47;16.77;;;;;;;12.31;100.00;101534.63;6267890;28;20049;-74
2023/05/06 07:52:28;;;;;;;34.70;16.58;;;;;;;12.35;100.00;101543.22;6274238;28;20045;-74
2023/05/06 07:55:30;;;;;;;37.63;14.65;;;;;;;12.42;100.00;101536.75;6276065;28;20041;-76
2023/05/06 07:58:32;;;;;;;37.15;16.65;;;;;;;12.35;100.00;101543.22;6277225;28;20045;-74
2023/05/06 08:01:34;;;;;;;36.08;14.45;;;;;;;12.28;100.00;101550.59;6272834;28;20041;-74
2023/05/06 08:04:35;;;;;;;29.95;13.55;;;;;;;12.25;100.00;101545.44;6269801;28;20038;-74
2023/05/06 08:07:37;;;;;;;31.73;13.35;;;;;;;12.30;100.00;101550.50;6270585;28;20037;-75
2023/05/06 08:10:38;;;;;;;29.35;11.73;;;;;;;12.32;100.00;101559.19;6276896;28;20041;-75
2023/05/06 08:13:41;;;;;;;26.33;12.10;;;;;;;12.35;100.00;101565.19;6276900;28;20357;-74
2023/05/06 08:16:42;;;;;;;27.52;12.90;;;;;;;12.39;100.00;101572.00;6272604;28;20357;-74
2023/05/06 08:19:44;;;;;;;26.50;11.10;;;;;;;12.46;100.00;101564.66;6273396;28;20408;-74
2023/05/06 08:22:45;;;;;;;23.73;11.10;;;;;;;12.49;100.00;101572.44;6274833;28;20044;-74
2023/05/06 08:25:46;;;;;;;23.30;10.85;;;;;;;12.41;100.00;101572.78;6276862;28;20049;-74
2023/05/06 08:28:49;;;;;;;21.60;10.27;;;;;;;12.40;100.00;101583.41;6275309;28;20056;-74
2023/05/06 08:31:50;;;;;;;23.30;10.48;;;;;;;12.40;100.00;101589.53;6272371;28;20057;-74
2023/05/06 08:34:52;;;;;;;20.40;10.13;;;;;;;12.44;100.00;101588.47;6276679;28;20053;-74
2023/05/06 08:37:53;;;;;;;18.77;8.82;;;;;;;12.50;100.00;101578.56;6275951;28;20357;-74
2023/05/06 08:40:57;;;;;;;19.98;7.90;;;;;;;12.51;100.00;101591.66;6272611;28;20570;-74
2023/05/06 08:44:01;;;;;;;15.00;8.45;;;;;;;12.51;100.00;101594.28;6265075;28;20068;-74
2023/05/06 08:47:03;;;;;;;17.45;8.30;;;;;;;12.36;100.00;101590.63;6272387;28;20056;-74
2023/05/06 08:50:05;;;;;;;20.67;9.77;;;;;;;12.38;100.00;101590.53;6274603;28;20048;-74
2023/05/06 08:53:07;;;;;;;18.58;9.02;;;;;;;12.46;100.00;101596.31;6276092;28;20365;-74
2023/05/06 08:56:12;;;;;;;15.20;8.40;;;;;;;12.44;100.00;101595.50;6274198;28;20053;-74
2023/05/06 08:59:15;;;;;;;20.13;9.73;;;;;;;12.57;100.00;101593.13;6273748;28;20045;-74
2023/05/06 09:02:16;;;;;;;15.50;8.15;;;;;;;12.56;100.00;101592.28;6266756;28;20104;-74
2023/05/06 09:05:18;;;;;;;25.13;8.85;;;;;;;12.63;100.00;101587.59;6275590;28;20049;-74
2023/05/06 09:08:19;;;;;;;19.83;9.25;;;;;;;12.66;100.00;101593.53;6275071;28;20104;-74
2023/05/06 09:11:22;;;;;;;17.48;8.40;;;;;;;12.69;100.00;101587.28;6274791;28;20349;-74
2023/05/06 09:14:25;;;;;;;19.67;9.43;;;;;;;12.66;100.00;101590.91;6275631;28;20452;-74
2023/05/06 09:17:27;;;;;;;16.30;8.77;;;;;;;12.72;100.00;101586.25;6275281;28;20048;-74
2023/05/06 09:20:28;;;;;;;17.17;7.13;;;;;;;12.76;100.00;101593.09;6275500;28;20406;-74
2023/05/06 09:23:30;;;;;;;17.00;8.43;;;;;;;12.81;100.00;101588.44;6275464;28;20045;-74
2023/05/06 09:26:32;;;;;;;18.33;7.70;;;;;;;12.91;100.00;101584.44;6275400;28;20048;-74
2023/05/06 09:29:35;;;;;;;18.27;8.13;;;;;;;12.98;100.00;101583.19;6275107;28;20053;-74
2023/05/06 09:32:36;;;;;;;17.75;8.23;;;;;;;12.94;100.00;101579.88;6275435;28;20045;-74
2023/05/06 09:35:40;;;;;;;17.00;8.35;;;;;;;13.03;100.00;101583.81;6275269;28;20045;-74
2023/05/06 09:38:41;;;;;;;14.05;7.75;;;;;;;13.08;100.00;101587.09;6275254;28;20072;-74
2023/05/06 09:41:43;;;;;;;18.58;7.70;;;;;;;13.15;100.00;101592.91;6275349;28;20064;-74
2023/05/06 09:44:45;;;;;;;24.15;7.45;;;;;;;13.20;100.00;101593.53;6275254;28;20099;-74
2023/05/06 09:47:48;;;;;;;16.58;7.65;;;;;;;13.30;100.00;101600.06;6275114;28;20060;-74
2023/05/06 09:50:49;;;;;;;27.98;12.35;;;;;;;13.39;100.00;101594.31;6275116;28;20099;-74
2023/05/06 09:53:52;;;;;;;15.82;6.97;;;;;;;13.40;100.00;101598.69;6275597;28;20048;-75
2023/05/06 09:56:56;;;;;;;19.33;8.98;;;;;;;13.40;100.00;101593.41;6266887;28;20053;-74
2023/05/06 09:59:59;;;;;;;22.65;9.38;;;;;;;13.45;100.00;101593.19;6275192;28;20052;-74
2023/05/06 10:03:01;;;;;;;17.17;8.63;;;;;;;13.54;100.00;101586.56;6275032;28;20048;-74
2023/05/06 10:06:05;;;;;;;12.93;6.47;;;;;;;13.58;100.00;101596.00;6275170;28;20045;-74
2023/05/06 10:09:07;;;;;;;18.25;7.55;;;;;;;13.58;100.00;101593.38;6274731;28;20086;-74
2023/05/06 10:12:09;;;;;;;15.18;6.65;;;;;;;13.61;100.00;101590.56;6275191;28;20102;-74
2023/05/06 10:15:12;;;;;;;15.57;7.47;;;;;;;13.58;100.00;101596.00;6274785;28;20051;-74
2023/05/06 10:18:16;;;;;;;13.07;5.90;;;;;;;13.55;100.00;101589.13;6274779;28;20053;-74
2023/05/06 10:21:21;;;;;;;16.95;7.85;;;;;;;13.59;100.00;101593.31;6279796;28;20045;-74
2023/05/06 10:24:25;;;;;;;16.58;7.25;;;;;;;13.69;100.00;101591.88;6280147;28;20054;-75
2023/05/06 10:27:30;;;;;;;14.48;6.13;;;;;;;13.81;100.00;101594.81;6279294;28;20041;-75
2023/05/06 10:30:34;;;;;;;17.38;6.05;;;;;;;13.58;100.00;101588.97;6279450;28;20049;-74
2023/05/06 10:33:36;;;;;;;15.38;7.20;;;;;;;13.52;100.00;101589.28;6279374;28;20342;-74
2023/05/06 10:36:39;;;;;;;14.35;6.35;;;;;;;13.53;100.00;101579.56;6279245;28;20045;-74
2023/05/06 10:39:42;;;;;;;23.10;9.02;;;;;;;13.69;100.00;101573.38;6279346;28;20174;-75
2023/05/06 10:42:43;;;;;;;20.63;7.55;;;;;;;13.76;100.00;101578.34;6274252;28;20049;-75
2023/05/06 10:46:00;;;;;;;14.00;7.63;;;;;;;13.76;100.00;101571.25;6270649;28;20048;-74
2023/05/06 10:49:18;;;;;;;12.25;6.20;;;;;;;13.82;100.00;101578.03;6268717;28;20195;-74
2023/05/06 10:52:20;;;;;;;12.47;6.67;;;;;;;13.90;100.00;101574.03;6278966;28;20095;-74
2023/05/06 10:55:26;;;;;;;11.82;6.28;;;;;;;13.88;100.00;101567.97;6278765;28;20409;-74
2023/05/06 10:58:27;;;;;;;11.20;5.97;;;;;;;13.93;100.00;101570.38;6278446;28;20626;-74
2023/05/06 11:01:30;;;;;;;19.23;7.25;;;;;;;13.92;100.00;101569.50;6278751;28;20044;-74
2023/05/06 11:04:32;;;;;;;13.50;6.70;;;;;;;13.94;100.00;101567.66;6274778;28;20045;-78
2023/05/06 11:07:33;;;;;;;12.07;5.72;;;;;;;13.95;100.00;101569.34;6276627;28;20045;-79
2023/05/06 11:10:35;;;;;;;13.38;5.88;;;;;;;13.88;100.00;101575.06;6274607;28;20540;-79
2023/05/06 11:13:36;;;;;;;18.45;7.07;;;;;;;13.83;100.00;101569.16;6274624;28;20041;-77
2023/05/06 11:16:49;;;;;;;12.00;5.65;;;;;;;13.90;100.00;101568.75;6278491;28;20111;-77
2023/05/06 11:20:21;;;;;;;14.02;6.07;;;;;;;13.96;100.00;101572.84;6278129;28;20056;-77
2023/05/06 11:24:06;;;;;;;9.10;4.78;;;;;;;13.98;100.00;101584.19;6277203;28;20041;-77
2023/05/06 11:27:08;;;;;;;15.02;6.32;;;;;;;14.06;100.00;101574.06;6278067;28;20464;-77
2023/05/06 11:30:13;;;;;;;14.20;6.32;;;;;;;14.18;100.00;101577.81;6276697;28;20049;-77
2023/05/06 11:33:18;;;;;;;15.80;6.50;;;;;;;14.28;100.00;101579.00;6277989;28;20040;-77
2023/05/06 11:36:21;;;;;;;11.57;5.90;;;;;;;14.35;100.00;101579.50;6278046;28;20123;-76
2023/05/06 11:39:23;;;;;;;17.50;6.28;;;;;;;14.40;100.00;101578.34;6277775;28;20052;-77
2023/05/06 11:42:26;;;;;;;13.63;6.65;;;;;;;14.41;100.00;101569.47;6272227;28;20052;-77
2023/05/06 11:45:39;;;;;;;12.63;5.80;;;;;;;14.32;100.00;101566.47;6285347;28;20120;-76
2023/05/06 11:48:43;;;;;;;13.95;6.80;;;;;;;14.25;100.00;101573.03;6273203;28;20050;-77
2023/05/06 11:51:47;;;;;;;10.27;5.25;;;;;;;14.25;100.00;101579.16;6276840;28;20053;-76
2023/05/06 11:54:52;;;;;;;12.85;5.80;;;;;;;14.24;100.00;101579.25;6268435;28;20060;-78
2023/05/06 11:57:53;;;;;;;14.80;6.22;;;;;;;14.27;100.00;101581.75;6270856;28;20053;-78
2023/05/06 12:00:57;;;;;;;10.90;5.70;;;;;;;14.37;100.00;101570.56;6277516;28;20063;-78
2023/05/06 12:03:59;;;;;;;13.05;5.53;;;;;;;14.42;100.00;101572.94;6277200;28;20045;-77
2023/05/06 12:07:02;;;;;;;12.80;5.72;;;;;;;14.41;100.00;101580.03;6277376;28;20060;-77
2023/05/06 12:10:05;;;;;;;16.75;6.72;;;;;;;14.46;100.00;101583.28;6276903;28;20466;-77
2023/05/06 12:13:07;;;;;;;12.75;5.78;;;;;;;14.52;100.00;101581.25;6276551;28;20452;-77
2023/05/06 12:16:10;;;;;;;15.88;6.65;;;;;;;14.53;100.00;101578.50;6275948;28;20053;-77
2023/05/06 12:19:12;;;;;;;11.60;5.80;;;;;;;14.61;100.00;101573.63;6276950;28;20115;-77
2023/05/06 12:22:19;;;;;;;15.50;6.80;;;;;;;14.69;100.00;101579.34;6276798;28;20052;-77
2023/05/06 12:25:21;;;;;;;20.60;6.38;;;;;;;14.72;100.00;101578.34;6276953;28;20048;-77
2023/05/06 12:28:22;;;;;;;13.10;5.90;;;;;;;14.82;100.00;101584.81;6275918;28;20052;-77
2023/05/06 12:31:25;;;;;;;15.23;7.03;;;;;;;15.00;100.00;101585.53;6270495;28;20449;-77
2023/05/06 12:34:36;;;;;;;10.32;5.60;;;;;;;15.34;100.00;101580.88;6276545;28;20132;-77
2023/05/06 12:37:39;;;;;;;16.67;5.90;;;;;;;15.63;100.00;101579.97;6276271;28;20330;-77
2023/05/06 12:40:41;;;;;;;15.02;6.10;;;;;;;15.81;100.00;101578.03;6276497;28;20041;-77
2023/05/06 12:43:42;;;;;;;15.52;7.00;;;;;;;16.08;100.00;101575.44;6275809;28;20056;-77
2023/05/06 12:46:50;;;;;;;13.05;5.20;;;;;;;16.25;100.00;101571.69;6284095;28;20049;-77
2023/05/06 12:49:53;;;;;;;7.53;3.60;;;;;;;16.44;100.00;101574.91;6275562;28;20426;-77
2023/05/06 12:52:55;;;;;;;10.00;4.60;;;;;;;16.76;100.00;101564.00;6276093;28;20075;-77
2023/05/06 12:55:57;;;;;;;12.23;5.10;;;;;;;16.87;100.00;101568.59;6275766;28;20349;-77
2023/05/06 12:58:59;;;;;;;10.73;5.53;;;;;;;17.30;100.00;101571.84;6275472;28;20051;-77
2023/05/06 13:02:01;;;;;;;13.00;5.60;;;;;;;17.59;100.00;101567.19;6275921;28;20480;-78
2023/05/06 13:05:02;;;;;;;11.23;5.50;;;;;;;17.72;100.00;101568.03;6276008;28;20465;-77
2023/05/06 13:08:05;;;;;;;11.50;5.47;;;;;;;17.38;100.00;101568.66;6275324;28;20357;-78
2023/05/06 13:11:06;;;;;;;15.65;5.22;;;;;;;17.01;100.00;101568.53;6275937;28;20076;-77
2023/05/06 13:14:08;;;;;;;9.82;4.55;;;;;;;16.79;100.00;101573.56;6275426;28;20357;-78
2023/05/06 13:17:09;;;;;;;8.95;4.63;;;;;;;16.58;100.00;101568.69;6275426;28;20053;-77
2023/05/06 13:20:12;;;;;;;10.98;5.25;;;;;;;16.73;100.00;101570.34;6268573;28;20049;-77
2023/05/06 13:23:15;;;;;;;9.73;4.95;;;;;;;16.92;100.00;101564.66;6275331;28;20053;-77
2023/05/06 13:26:17;;;;;;;10.70;5.03;;;;;;;17.09;100.00;101566.19;6275328;28;20353;-77
2023/05/06 13:29:18;;;;;;;10.32;5.20;;;;;;;17.20;100.00;101561.00;6274681;28;20049;-77
2023/05/06 13:32:20;;;;;;;10.07;4.93;;;;;;;17.23;100.00;101547.50;6275468;28;20045;-77
2023/05/06 13:35:21;;;;;;;11.50;5.15;;;;;;;17.48;100.00;101544.00;6275130;28;20045;-77
2023/05/06 13:38:24;;;;;;;9.35;4.68;;;;;;;17.68;100.00;101549.75;6275158;28;20056;-78
2023/05/06 13:41:25;;;;;;;14.95;6.55;;;;;;;17.82;100.00;101540.81;6275166;28;20045;-77
2023/05/06 13:44:26;;;;;;;13.65;5.68;;;;;;;18.07;100.00;101538.09;6275372;28;20048;-77
2023/05/06 13:47:28;;;;;;;11.43;5.20;;;;;;;18.34;100.00;101542.38;6274827;28;20437;-78
2023/05/06 13:50:29;;;;;;;11.48;5.22;;;;;;;18.47;100.00;101540.50;6274997;28;20044;-77